sensor_id;sensor_type;location;lat;lon;timestamp;P1;durP1;ratioP1;P2;durP2;ratioP2
63112;SDS011;49206;48.020;21.378;2024-02-23T00:00:27;16.67;;;9.95;;
63112;SDS011;49206;48.020;21.378;2024-02-23T00:01:29;16.55;;;10.23;;
63112;SDS011;49206;48.020;21.378;2024-02-23T00:02:32;14.30;;;9.75;;
63112;SDS011;49206;48.020;21.378;2024-02-23T00:03:35;16.65;;;9.90;;
63112;SDS011;49206;48.020;21.378;2024-02-23T00:04:39;13.85;;;9.65;;
63112;SDS011;49206;48.020;21.378;2024-02-23T00:05:42;16.10;;;10.10;;
63112;SDS011;49206;48.020;21.378;2024-02-23T00:06:45;15.30;;;9.70;;
63112;SDS011;49206;48.020;21.378;2024-02-23T00:07:48;15.88;;;9.70;;
63112;SDS011;49206;48.020;21.378;2024-02-23T00:08:50;15.82;;;9.55;;
63112;SDS011;49206;48.020;21.378;2024-02-23T00:09:56;15.50;;;9.80;;
63112;SDS011;49206;48.020;21.378;2024-02-23T00:10:58;14.90;;;8.23;;
63112;SDS011;49206;48.020;21.378;2024-02-23T00:12:01;15.93;;;8.48;;
63112;SDS011;49206;48.020;21.378;2024-02-23T00:13:04;13.68;;;7.47;;
63112;SDS011;49206;48.020;21.378;2024-02-23T00:14:07;15.98;;;9.00;;
63112;SDS011;49206;48.020;21.378;2024-02-23T00:15:11;13.65;;;7.65;;
63112;SDS011;49206;48.020;21.378;2024-02-23T00:16:14;12.52;;;7.57;;
63112;SDS011;49206;48.020;21.378;2024-02-23T00:17:17;13.02;;;7.22;;
63112;SDS011;49206;48.020;21.378;2024-02-23T00:18:20;13.40;;;8.20;;
63112;SDS011;49206;48.020;21.378;2024-02-23T00:19:23;11.90;;;7.75;;
63112;SDS011;49206;48.020;21.378;2024-02-23T00:20:26;15.15;;;8.73;;
63112;SDS011;49206;48.020;21.378;2024-02-23T00:21:29;14.25;;;8.95;;
63112;SDS011;49206;48.020;21.378;2024-02-23T00:22:32;15.13;;;7.70;;
63112;SDS011;49206;48.020;21.378;2024-02-23T00:23:36;14.60;;;8.05;;
63112;SDS011;49206;48.020;21.378;2024-02-23T00:24:38;8.88;;;6.15;;
63112;SDS011;49206;48.020;21.378;2024-02-23T00:25:43;12.75;;;7.93;;
63112;SDS011;49206;48.020;21.378;2024-02-23T00:26:46;12.35;;;7.40;;
63112;SDS011;49206;48.020;21.378;2024-02-23T00:27:49;12.05;;;7.80;;
63112;SDS011;49206;48.020;21.378;2024-02-23T00:28:53;13.63;;;8.25;;
63112;SDS011;49206;48.020;21.378;2024-02-23T00:29:56;12.68;;;7.85;;
63112;SDS011;49206;48.020;21.378;2024-02-23T00:30:58;11.07;;;6.97;;
63112;SDS011;49206;48.020;21.378;2024-02-23T00:32:01;12.95;;;7.85;;
63112;SDS011;49206;48.020;21.378;2024-02-23T00:33:04;13.45;;;7.65;;
63112;SDS011;49206;48.020;21.378;2024-02-23T00:34:07;11.57;;;7.78;;
63112;SDS011;49206;48.020;21.378;2024-02-23T00:35:13;13.82;;;9.05;;
63112;SDS011;49206;48.020;21.378;2024-02-23T00:36:18;13.50;;;8.70;;
63112;SDS011;49206;48.020;21.378;2024-02-23T00:37:20;11.63;;;7.93;;
63112;SDS011;49206;48.020;21.378;2024-02-23T00:38:23;12.13;;;8.10;;
63112;SDS011;49206;48.020;21.378;2024-02-23T00:39:26;13.02;;;8.18;;
63112;SDS011;49206;48.020;21.378;2024-02-23T00:40:28;11.15;;;7.55;;
63112;SDS011;49206;48.020;21.378;2024-02-23T00:41:31;12.50;;;8.75;;
63112;SDS011;49206;48.020;21.378;2024-02-23T00:42:34;10.32;;;7.80;;
63112;SDS011;49206;48.020;21.378;2024-02-23T00:43:37;9.77;;;5.50;;
63112;SDS011;49206;48.020;21.378;2024-02-23T00:44:44;14.20;;;8.15;;
63112;SDS011;49206;48.020;21.378;2024-02-23T00:45:47;11.77;;;7.95;;
63112;SDS011;49206;48.020;21.378;2024-02-23T00:46:49;12.45;;;7.43;;
63112;SDS011;49206;48.020;21.378;2024-02-23T00:47:52;11.80;;;7.95;;
63112;SDS011;49206;48.020;21.378;2024-02-23T00:48:55;10.85;;;6.88;;
63112;SDS011;49206;48.020;21.378;2024-02-23T00:49:58;13.73;;;7.93;;
63112;SDS011;49206;48.020;21.378;2024-02-23T00:51:01;13.13;;;8.30;;
63112;SDS011;49206;48.020;21.378;2024-02-23T00:52:05;13.40;;;8.15;;
63112;SDS011;49206;48.020;21.378;2024-02-23T00:53:08;12.40;;;8.10;;
63112;SDS011;49206;48.020;21.378;2024-02-23T00:54:11;10.70;;;7.60;;
63112;SDS011;49206;48.020;21.378;2024-02-23T00:55:13;12.15;;;7.70;;
63112;SDS011;49206;48.020;21.378;2024-02-23T00:56:16;11.85;;;8.23;;
63112;SDS011;49206;48.020;21.378;2024-02-23T00:57:19;12.57;;;8.73;;
63112;SDS011;49206;48.020;21.378;2024-02-23T00:58:29;15.88;;;9.60;;
63112;SDS011;49206;48.020;21.378;2024-02-23T00:59:32;12.07;;;7.35;;
63112;SDS011;49206;48.020;21.378;2024-02-23T01:00:35;14.38;;;9.23;;
63112;SDS011;49206;48.020;21.378;2024-02-23T01:01:38;14.30;;;8.15;;
63112;SDS011;49206;48.020;21.378;2024-02-23T01:02:41;14.50;;;8.75;;
63112;SDS011;49206;48.020;21.378;2024-02-23T01:03:43;14.50;;;9.00;;
63112;SDS011;49206;48.020;21.378;2024-02-23T01:04:46;16.20;;;8.43;;
63112;SDS011;49206;48.020;21.378;2024-02-23T01:05:49;14.23;;;8.40;;
63112;SDS011;49206;48.020;21.378;2024-02-23T01:06:51;15.20;;;11.05;;
63112;SDS011;49206;48.020;21.378;2024-02-23T01:07:54;14.50;;;9.43;;
63112;SDS011;49206;48.020;21.378;2024-02-23T01:08:57;14.50;;;9.75;;
63112;SDS011;49206;48.020;21.378;2024-02-23T01:09:59;16.58;;;11.15;;
63112;SDS011;49206;48.020;21.378;2024-02-23T01:11:02;13.48;;;10.05;;
63112;SDS011;49206;48.020;21.378;2024-02-23T01:12:05;17.52;;;10.13;;
63112;SDS011;49206;48.020;21.378;2024-02-23T01:13:08;16.00;;;9.40;;
63112;SDS011;49206;48.020;21.378;2024-02-23T01:14:11;14.52;;;9.18;;
63112;SDS011;49206;48.020;21.378;2024-02-23T01:15:15;15.38;;;9.70;;
63112;SDS011;49206;48.020;21.378;2024-02-23T01:16:18;14.90;;;8.80;;
63112;SDS011;49206;48.020;21.378;2024-02-23T01:17:20;15.48;;;10.15;;
63112;SDS011;49206;48.020;21.378;2024-02-23T01:18:23;16.45;;;10.80;;
63112;SDS011;49206;48.020;21.378;2024-02-23T01:19:26;14.70;;;8.85;;
63112;SDS011;49206;48.020;21.378;2024-02-23T01:20:29;14.38;;;9.52;;
63112;SDS011;49206;48.020;21.378;2024-02-23T01:21:32;16.30;;;9.38;;
63112;SDS011;49206;48.020;21.378;2024-02-23T01:22:34;13.05;;;9.40;;
63112;SDS011;49206;48.020;21.378;2024-02-23T01:23:37;13.38;;;9.50;;
63112;SDS011;49206;48.020;21.378;2024-02-23T01:24:40;16.33;;;10.60;;
63112;SDS011;49206;48.020;21.378;2024-02-23T01:25:43;14.65;;;9.80;;
63112;SDS011;49206;48.020;21.378;2024-02-23T01:26:47;16.45;;;9.50;;
63112;SDS011;49206;48.020;21.378;2024-02-23T01:27:50;13.82;;;9.75;;
63112;SDS011;49206;48.020;21.378;2024-02-23T01:28:52;13.20;;;8.88;;
63112;SDS011;49206;48.020;21.378;2024-02-23T01:29:55;15.45;;;9.27;;
63112;SDS011;49206;48.020;21.378;2024-02-23T01:30:59;14.38;;;9.55;;
63112;SDS011;49206;48.020;21.378;2024-02-23T01:32:03;14.73;;;9.45;;
63112;SDS011;49206;48.020;21.378;2024-02-23T01:33:07;14.13;;;10.05;;
63112;SDS011;49206;48.020;21.378;2024-02-23T01:34:12;17.45;;;9.93;;
63112;SDS011;49206;48.020;21.378;2024-02-23T01:35:15;15.45;;;10.25;;
63112;SDS011;49206;48.020;21.378;2024-02-23T01:36:17;15.00;;;10.27;;
63112;SDS011;49206;48.020;21.378;2024-02-23T01:37:20;12.45;;;9.25;;
63112;SDS011;49206;48.020;21.378;2024-02-23T01:38:27;16.98;;;10.75;;
63112;SDS011;49206;48.020;21.378;2024-02-23T01:39:34;15.35;;;9.00;;
63112;SDS011;49206;48.020;21.378;2024-02-23T01:40:36;16.13;;;10.52;;
63112;SDS011;49206;48.020;21.378;2024-02-23T01:41:39;16.60;;;9.65;;
63112;SDS011;49206;48.020;21.378;2024-02-23T01:42:43;14.55;;;9.50;;
63112;SDS011;49206;48.020;21.378;2024-02-23T01:43:45;17.13;;;9.90;;
63112;SDS011;49206;48.020;21.378;2024-02-23T01:44:48;14.05;;;8.57;;
63112;SDS011;49206;48.020;21.378;2024-02-23T01:45:51;15.98;;;9.75;;
63112;SDS011;49206;48.020;21.378;2024-02-23T01:46:55;15.57;;;9.75;;
63112;SDS011;49206;48.020;21.378;2024-02-23T01:47:59;14.07;;;9.10;;
63112;SDS011;49206;48.020;21.378;2024-02-23T01:49:01;14.32;;;9.20;;
63112;SDS011;49206;48.020;21.378;2024-02-23T01:50:05;14.98;;;9.27;;
63112;SDS011;49206;48.020;21.378;2024-02-23T01:51:10;14.60;;;9.23;;
63112;SDS011;49206;48.020;21.378;2024-02-23T01:52:14;14.40;;;8.80;;
63112;SDS011;49206;48.020;21.378;2024-02-23T01:53:17;12.10;;;8.90;;
63112;SDS011;49206;48.020;21.378;2024-02-23T01:54:21;15.68;;;9.27;;
63112;SDS011;49206;48.020;21.378;2024-02-23T01:55:24;12.43;;;7.97;;
63112;SDS011;49206;48.020;21.378;2024-02-23T01:56:26;14.20;;;8.60;;
63112;SDS011;49206;48.020;21.378;2024-02-23T01:57:29;13.02;;;8.60;;
63112;SDS011;49206;48.020;21.378;2024-02-23T01:58:50;13.82;;;8.48;;
63112;SDS011;49206;48.020;21.378;2024-02-23T01:59:54;12.00;;;7.70;;
63112;SDS011;49206;48.020;21.378;2024-02-23T02:00:58;12.82;;;8.90;;
63112;SDS011;49206;48.020;21.378;2024-02-23T02:02:02;13.20;;;8.73;;
63112;SDS011;49206;48.020;21.378;2024-02-23T02:03:05;11.52;;;8.10;;
63112;SDS011;49206;48.020;21.378;2024-02-23T02:04:12;14.07;;;8.45;;
63112;SDS011;49206;48.020;21.378;2024-02-23T02:05:15;15.45;;;8.10;;
63112;SDS011;49206;48.020;21.378;2024-02-23T02:06:18;10.75;;;7.68;;
63112;SDS011;49206;48.020;21.378;2024-02-23T02:07:21;11.98;;;7.97;;
63112;SDS011;49206;48.020;21.378;2024-02-23T02:08:26;14.73;;;7.95;;
63112;SDS011;49206;48.020;21.378;2024-02-23T02:09:29;14.35;;;7.18;;
63112;SDS011;49206;48.020;21.378;2024-02-23T02:10:32;15.07;;;7.78;;
63112;SDS011;49206;48.020;21.378;2024-02-23T02:11:35;11.73;;;7.82;;
63112;SDS011;49206;48.020;21.378;2024-02-23T02:12:47;12.80;;;7.82;;
63112;SDS011;49206;48.020;21.378;2024-02-23T02:13:50;11.93;;;7.80;;
63112;SDS011;49206;48.020;21.378;2024-02-23T02:14:53;15.80;;;7.50;;
63112;SDS011;49206;48.020;21.378;2024-02-23T02:15:58;11.73;;;7.30;;
63112;SDS011;49206;48.020;21.378;2024-02-23T02:17:03;16.02;;;7.60;;
63112;SDS011;49206;48.020;21.378;2024-02-23T02:18:06;14.07;;;7.90;;
63112;SDS011;49206;48.020;21.378;2024-02-23T02:19:12;14.13;;;8.30;;
63112;SDS011;49206;48.020;21.378;2024-02-23T02:20:16;8.73;;;6.00;;
63112;SDS011;49206;48.020;21.378;2024-02-23T02:21:20;13.10;;;8.63;;
63112;SDS011;49206;48.020;21.378;2024-02-23T02:22:27;10.77;;;6.97;;
63112;SDS011;49206;48.020;21.378;2024-02-23T02:23:30;12.35;;;7.55;;
63112;SDS011;49206;48.020;21.378;2024-02-23T02:24:33;13.02;;;7.30;;
63112;SDS011;49206;48.020;21.378;2024-02-23T02:25:35;14.70;;;8.10;;
63112;SDS011;49206;48.020;21.378;2024-02-23T02:26:38;15.18;;;7.35;;
63112;SDS011;49206;48.020;21.378;2024-02-23T02:27:41;11.10;;;6.75;;
63112;SDS011;49206;48.020;21.378;2024-02-23T02:28:44;14.18;;;7.70;;
63112;SDS011;49206;48.020;21.378;2024-02-23T02:30:55;11.43;;;6.93;;
63112;SDS011;49206;48.020;21.378;2024-02-23T02:31:58;10.20;;;7.20;;
63112;SDS011;49206;48.020;21.378;2024-02-23T02:33:01;13.25;;;6.97;;
63112;SDS011;49206;48.020;21.378;2024-02-23T02:34:04;8.38;;;5.88;;
63112;SDS011;49206;48.020;21.378;2024-02-23T02:35:07;9.95;;;6.70;;
63112;SDS011;49206;48.020;21.378;2024-02-23T02:36:11;11.60;;;7.32;;
63112;SDS011;49206;48.020;21.378;2024-02-23T02:37:14;11.07;;;6.30;;
63112;SDS011;49206;48.020;21.378;2024-02-23T02:38:16;11.70;;;6.70;;
63112;SDS011;49206;48.020;21.378;2024-02-23T02:39:19;10.65;;;6.10;;
63112;SDS011;49206;48.020;21.378;2024-02-23T02:40:22;12.70;;;6.57;;
63112;SDS011;49206;48.020;21.378;2024-02-23T02:41:25;10.45;;;6.82;;
63112;SDS011;49206;48.020;21.378;2024-02-23T02:42:31;12.02;;;6.82;;
63112;SDS011;49206;48.020;21.378;2024-02-23T02:43:33;11.80;;;6.88;;
63112;SDS011;49206;48.020;21.378;2024-02-23T02:44:36;11.82;;;6.85;;
63112;SDS011;49206;48.020;21.378;2024-02-23T02:45:39;8.50;;;6.00;;
63112;SDS011;49206;48.020;21.378;2024-02-23T02:46:42;11.02;;;8.02;;
63112;SDS011;49206;48.020;21.378;2024-02-23T02:47:45;10.05;;;6.05;;
63112;SDS011;49206;48.020;21.378;2024-02-23T02:48:47;10.07;;;6.28;;
63112;SDS011;49206;48.020;21.378;2024-02-23T02:49:51;10.43;;;6.05;;
63112;SDS011;49206;48.020;21.378;2024-02-23T02:50:54;10.75;;;7.13;;
63112;SDS011;49206;48.020;21.378;2024-02-23T02:51:57;8.70;;;7.07;;
63112;SDS011;49206;48.020;21.378;2024-02-23T02:53:00;11.27;;;6.00;;
63112;SDS011;49206;48.020;21.378;2024-02-23T02:54:03;9.35;;;5.57;;
63112;SDS011;49206;48.020;21.378;2024-02-23T02:55:05;9.30;;;6.63;;
63112;SDS011;49206;48.020;21.378;2024-02-23T02:56:08;8.85;;;6.05;;
63112;SDS011;49206;48.020;21.378;2024-02-23T02:57:11;10.55;;;5.68;;
63112;SDS011;49206;48.020;21.378;2024-02-23T02:58:15;8.43;;;6.07;;
63112;SDS011;49206;48.020;21.378;2024-02-23T02:59:18;7.60;;;5.10;;
63112;SDS011;49206;48.020;21.378;2024-02-23T03:00:22;9.75;;;5.93;;
63112;SDS011;49206;48.020;21.378;2024-02-23T03:01:24;9.82;;;5.57;;
63112;SDS011;49206;48.020;21.378;2024-02-23T03:02:27;8.80;;;6.13;;
63112;SDS011;49206;48.020;21.378;2024-02-23T03:03:30;9.85;;;6.38;;
63112;SDS011;49206;48.020;21.378;2024-02-23T03:04:33;8.73;;;5.50;;
63112;SDS011;49206;48.020;21.378;2024-02-23T03:05:35;10.90;;;6.43;;
63112;SDS011;49206;48.020;21.378;2024-02-23T03:06:38;10.68;;;6.15;;
63112;SDS011;49206;48.020;21.378;2024-02-23T03:07:41;10.75;;;6.18;;
63112;SDS011;49206;48.020;21.378;2024-02-23T03:08:44;10.13;;;6.00;;
63112;SDS011;49206;48.020;21.378;2024-02-23T03:09:47;8.98;;;5.03;;
63112;SDS011;49206;48.020;21.378;2024-02-23T03:11:53;7.13;;;4.45;;
63112;SDS011;49206;48.020;21.378;2024-02-23T03:12:56;7.82;;;5.20;;
63112;SDS011;49206;48.020;21.378;2024-02-23T03:13:58;8.38;;;5.18;;
63112;SDS011;49206;48.020;21.378;2024-02-23T03:15:01;8.50;;;5.55;;
63112;SDS011;49206;48.020;21.378;2024-02-23T03:16:14;14.73;;;5.55;;
63112;SDS011;49206;48.020;21.378;2024-02-23T03:17:19;7.40;;;4.68;;
63112;SDS011;49206;48.020;21.378;2024-02-23T03:18:21;11.23;;;5.07;;
63112;SDS011;49206;48.020;21.378;2024-02-23T03:19:25;6.68;;;4.93;;
63112;SDS011;49206;48.020;21.378;2024-02-23T03:20:28;8.07;;;5.30;;
63112;SDS011;49206;48.020;21.378;2024-02-23T03:21:31;9.73;;;5.38;;
63112;SDS011;49206;48.020;21.378;2024-02-23T03:22:35;8.57;;;4.93;;
63112;SDS011;49206;48.020;21.378;2024-02-23T03:23:38;11.13;;;5.97;;
63112;SDS011;49206;48.020;21.378;2024-02-23T03:24:40;9.80;;;5.43;;
63112;SDS011;49206;48.020;21.378;2024-02-23T03:25:43;7.35;;;5.00;;
63112;SDS011;49206;48.020;21.378;2024-02-23T03:26:46;8.52;;;5.35;;
63112;SDS011;49206;48.020;21.378;2024-02-23T03:27:49;8.50;;;5.57;;
63112;SDS011;49206;48.020;21.378;2024-02-23T03:28:51;9.23;;;5.55;;
63112;SDS011;49206;48.020;21.378;2024-02-23T03:29:55;10.85;;;6.07;;
63112;SDS011;49206;48.020;21.378;2024-02-23T03:30:59;9.32;;;6.05;;
63112;SDS011;49206;48.020;21.378;2024-02-23T03:33:05;7.63;;;5.43;;
63112;SDS011;49206;48.020;21.378;2024-02-23T03:34:08;10.43;;;6.30;;
63112;SDS011;49206;48.020;21.378;2024-02-23T03:35:10;9.40;;;5.95;;
63112;SDS011;49206;48.020;21.378;2024-02-23T03:36:13;12.18;;;6.80;;
63112;SDS011;49206;48.020;21.378;2024-02-23T03:37:16;9.50;;;5.40;;
63112;SDS011;49206;48.020;21.378;2024-02-23T03:38:19;11.00;;;7.13;;
63112;SDS011;49206;48.020;21.378;2024-02-23T03:39:21;8.93;;;5.82;;
63112;SDS011;49206;48.020;21.378;2024-02-23T03:40:24;9.00;;;5.72;;
63112;SDS011;49206;48.020;21.378;2024-02-23T03:41:27;8.85;;;5.05;;
63112;SDS011;49206;48.020;21.378;2024-02-23T03:42:30;9.85;;;6.00;;
63112;SDS011;49206;48.020;21.378;2024-02-23T03:43:33;12.00;;;6.50;;
63112;SDS011;49206;48.020;21.378;2024-02-23T03:44:37;8.02;;;5.00;;
63112;SDS011;49206;48.020;21.378;2024-02-23T03:45:39;9.25;;;6.50;;
63112;SDS011;49206;48.020;21.378;2024-02-23T03:46:42;9.88;;;6.40;;
63112;SDS011;49206;48.020;21.378;2024-02-23T03:47:45;10.02;;;7.00;;
63112;SDS011;49206;48.020;21.378;2024-02-23T03:48:48;10.40;;;5.25;;
63112;SDS011;49206;48.020;21.378;2024-02-23T03:49:51;8.85;;;6.35;;
63112;SDS011;49206;48.020;21.378;2024-02-23T03:50:53;11.32;;;6.93;;
63112;SDS011;49206;48.020;21.378;2024-02-23T03:51:56;10.60;;;7.22;;
63112;SDS011;49206;48.020;21.378;2024-02-23T03:52:59;8.85;;;5.75;;
63112;SDS011;49206;48.020;21.378;2024-02-23T03:54:01;8.30;;;6.05;;
63112;SDS011;49206;48.020;21.378;2024-02-23T03:55:05;11.00;;;6.00;;
63112;SDS011;49206;48.020;21.378;2024-02-23T03:56:08;9.23;;;6.35;;
63112;SDS011;49206;48.020;21.378;2024-02-23T03:57:11;11.75;;;6.57;;
63112;SDS011;49206;48.020;21.378;2024-02-23T03:59:18;10.55;;;6.30;;
63112;SDS011;49206;48.020;21.378;2024-02-23T04:00:21;10.18;;;6.75;;
63112;SDS011;49206;48.020;21.378;2024-02-23T04:02:27;12.80;;;6.40;;
63112;SDS011;49206;48.020;21.378;2024-02-23T04:03:32;9.63;;;5.90;;
63112;SDS011;49206;48.020;21.378;2024-02-23T04:04:35;11.55;;;6.45;;
63112;SDS011;49206;48.020;21.378;2024-02-23T04:05:37;8.23;;;4.93;;
63112;SDS011;49206;48.020;21.378;2024-02-23T04:06:40;9.38;;;5.72;;
63112;SDS011;49206;48.020;21.378;2024-02-23T04:07:43;8.93;;;5.65;;
63112;SDS011;49206;48.020;21.378;2024-02-23T04:08:46;9.80;;;5.35;;
63112;SDS011;49206;48.020;21.378;2024-02-23T04:09:52;9.05;;;6.10;;
63112;SDS011;49206;48.020;21.378;2024-02-23T04:10:56;10.23;;;5.93;;
63112;SDS011;49206;48.020;21.378;2024-02-23T04:12:00;7.25;;;4.57;;
63112;SDS011;49206;48.020;21.378;2024-02-23T04:13:02;6.72;;;4.90;;
63112;SDS011;49206;48.020;21.378;2024-02-23T04:14:05;8.32;;;5.18;;
63112;SDS011;49206;48.020;21.378;2024-02-23T04:15:09;8.00;;;4.70;;
63112;SDS011;49206;48.020;21.378;2024-02-23T04:16:12;9.93;;;5.25;;
63112;SDS011;49206;48.020;21.378;2024-02-23T04:17:15;7.43;;;5.10;;
63112;SDS011;49206;48.020;21.378;2024-02-23T04:18:18;9.10;;;5.25;;
63112;SDS011;49206;48.020;21.378;2024-02-23T04:19:21;7.47;;;5.43;;
63112;SDS011;49206;48.020;21.378;2024-02-23T04:20:24;10.90;;;5.50;;
63112;SDS011;49206;48.020;21.378;2024-02-23T04:21:27;8.85;;;5.13;;
63112;SDS011;49206;48.020;21.378;2024-02-23T04:22:30;9.27;;;5.40;;
63112;SDS011;49206;48.020;21.378;2024-02-23T04:23:34;6.05;;;4.40;;
63112;SDS011;49206;48.020;21.378;2024-02-23T04:24:40;8.93;;;5.15;;
63112;SDS011;49206;48.020;21.378;2024-02-23T04:25:44;9.45;;;5.35;;
63112;SDS011;49206;48.020;21.378;2024-02-23T04:26:46;8.75;;;5.22;;
63112;SDS011;49206;48.020;21.378;2024-02-23T04:27:49;7.10;;;5.00;;
63112;SDS011;49206;48.020;21.378;2024-02-23T04:28:51;8.10;;;5.28;;
63112;SDS011;49206;48.020;21.378;2024-02-23T04:29:54;7.38;;;5.35;;
63112;SDS011;49206;48.020;21.378;2024-02-23T04:30:56;7.90;;;5.25;;
63112;SDS011;49206;48.020;21.378;2024-02-23T04:32:00;9.23;;;5.60;;
63112;SDS011;49206;48.020;21.378;2024-02-23T04:33:03;8.50;;;4.88;;
63112;SDS011;49206;48.020;21.378;2024-02-23T04:34:06;8.80;;;5.03;;
63112;SDS011;49206;48.020;21.378;2024-02-23T04:35:09;6.97;;;5.25;;
63112;SDS011;49206;48.020;21.378;2024-02-23T04:36:11;9.40;;;5.75;;
63112;SDS011;49206;48.020;21.378;2024-02-23T04:37:14;8.25;;;5.40;;
63112;SDS011;49206;48.020;21.378;2024-02-23T04:38:17;8.05;;;5.55;;
63112;SDS011;49206;48.020;21.378;2024-02-23T04:39:20;9.00;;;5.28;;
63112;SDS011;49206;48.020;21.378;2024-02-23T04:40:22;8.57;;;5.22;;
63112;SDS011;49206;48.020;21.378;2024-02-23T04:41:25;7.57;;;5.05;;
63112;SDS011;49206;48.020;21.378;2024-02-23T04:42:28;9.32;;;5.25;;
63112;SDS011;49206;48.020;21.378;2024-02-23T04:43:31;8.45;;;4.93;;
63112;SDS011;49206;48.020;21.378;2024-02-23T04:44:34;9.35;;;5.75;;
63112;SDS011;49206;48.020;21.378;2024-02-23T04:45:37;7.30;;;4.55;;
63112;SDS011;49206;48.020;21.378;2024-02-23T04:46:40;7.18;;;4.85;;
63112;SDS011;49206;48.020;21.378;2024-02-23T04:47:43;8.45;;;4.88;;
63112;SDS011;49206;48.020;21.378;2024-02-23T04:48:48;7.93;;;5.30;;
63112;SDS011;49206;48.020;21.378;2024-02-23T04:50:53;5.85;;;4.25;;
63112;SDS011;49206;48.020;21.378;2024-02-23T04:51:56;8.90;;;5.75;;
63112;SDS011;49206;48.020;21.378;2024-02-23T04:52:59;6.53;;;4.22;;
63112;SDS011;49206;48.020;21.378;2024-02-23T04:54:02;6.72;;;4.90;;
63112;SDS011;49206;48.020;21.378;2024-02-23T04:55:05;7.95;;;4.47;;
63112;SDS011;49206;48.020;21.378;2024-02-23T04:56:08;7.38;;;4.65;;
63112;SDS011;49206;48.020;21.378;2024-02-23T04:57:11;6.40;;;4.63;;
63112;SDS011;49206;48.020;21.378;2024-02-23T04:58:14;9.80;;;4.60;;
63112;SDS011;49206;48.020;21.378;2024-02-23T04:59:16;4.45;;;3.80;;
63112;SDS011;49206;48.020;21.378;2024-02-23T05:00:19;6.72;;;3.92;;
63112;SDS011;49206;48.020;21.378;2024-02-23T05:01:22;8.13;;;5.20;;
63112;SDS011;49206;48.020;21.378;2024-02-23T05:02:24;7.50;;;4.78;;
63112;SDS011;49206;48.020;21.378;2024-02-23T05:03:30;6.82;;;4.10;;
63112;SDS011;49206;48.020;21.378;2024-02-23T05:04:34;7.07;;;4.30;;
63112;SDS011;49206;48.020;21.378;2024-02-23T05:05:37;8.45;;;4.90;;
63112;SDS011;49206;48.020;21.378;2024-02-23T05:06:40;6.95;;;4.30;;
63112;SDS011;49206;48.020;21.378;2024-02-23T05:07:47;5.55;;;4.25;;
63112;SDS011;49206;48.020;21.378;2024-02-23T05:08:50;4.65;;;3.60;;
63112;SDS011;49206;48.020;21.378;2024-02-23T05:09:52;4.90;;;3.95;;
63112;SDS011;49206;48.020;21.378;2024-02-23T05:10:55;5.38;;;4.10;;
63112;SDS011;49206;48.020;21.378;2024-02-23T05:11:58;4.30;;;3.58;;
63112;SDS011;49206;48.020;21.378;2024-02-23T05:13:01;5.32;;;3.72;;
63112;SDS011;49206;48.020;21.378;2024-02-23T05:14:03;5.80;;;4.43;;
63112;SDS011;49206;48.020;21.378;2024-02-23T05:15:06;6.68;;;3.85;;
63112;SDS011;49206;48.020;21.378;2024-02-23T05:16:09;6.30;;;4.25;;
63112;SDS011;49206;48.020;21.378;2024-02-23T05:17:12;6.60;;;4.15;;
63112;SDS011;49206;48.020;21.378;2024-02-23T05:18:15;5.30;;;3.50;;
63112;SDS011;49206;48.020;21.378;2024-02-23T05:19:18;5.57;;;3.92;;
63112;SDS011;49206;48.020;21.378;2024-02-23T05:20:21;5.45;;;4.25;;
63112;SDS011;49206;48.020;21.378;2024-02-23T05:21:24;5.60;;;4.60;;
63112;SDS011;49206;48.020;21.378;2024-02-23T05:22:28;5.03;;;3.92;;
63112;SDS011;49206;48.020;21.378;2024-02-23T05:23:30;7.03;;;4.28;;
63112;SDS011;49206;48.020;21.378;2024-02-23T05:24:33;4.80;;;3.72;;
63112;SDS011;49206;48.020;21.378;2024-02-23T05:25:36;4.32;;;3.58;;
63112;SDS011;49206;48.020;21.378;2024-02-23T05:26:39;7.45;;;3.92;;
63112;SDS011;49206;48.020;21.378;2024-02-23T05:27:42;7.45;;;5.03;;
63112;SDS011;49206;48.020;21.378;2024-02-23T05:28:44;6.45;;;4.25;;
63112;SDS011;49206;48.020;21.378;2024-02-23T05:29:47;6.40;;;4.53;;
63112;SDS011;49206;48.020;21.378;2024-02-23T05:30:50;9.93;;;5.40;;
63112;SDS011;49206;48.020;21.378;2024-02-23T05:31:53;5.30;;;4.03;;
63112;SDS011;49206;48.020;21.378;2024-02-23T05:32:57;9.43;;;4.50;;
63112;SDS011;49206;48.020;21.378;2024-02-23T05:34:00;6.15;;;4.85;;
63112;SDS011;49206;48.020;21.378;2024-02-23T05:35:03;8.13;;;5.00;;
63112;SDS011;49206;48.020;21.378;2024-02-23T05:36:06;8.55;;;5.82;;
63112;SDS011;49206;48.020;21.378;2024-02-23T05:37:10;10.38;;;6.60;;
63112;SDS011;49206;48.020;21.378;2024-02-23T05:38:13;16.25;;;8.98;;
63112;SDS011;49206;48.020;21.378;2024-02-23T05:39:16;12.57;;;7.43;;
63112;SDS011;49206;48.020;21.378;2024-02-23T05:40:20;11.23;;;6.80;;
63112;SDS011;49206;48.020;21.378;2024-02-23T05:41:23;10.57;;;6.65;;
63112;SDS011;49206;48.020;21.378;2024-02-23T05:42:26;10.38;;;5.90;;
63112;SDS011;49206;48.020;21.378;2024-02-23T05:43:28;9.55;;;5.85;;
63112;SDS011;49206;48.020;21.378;2024-02-23T05:44:32;10.85;;;6.85;;
63112;SDS011;49206;48.020;21.378;2024-02-23T05:45:34;12.20;;;6.43;;
63112;SDS011;49206;48.020;21.378;2024-02-23T05:46:37;6.18;;;4.13;;
63112;SDS011;49206;48.020;21.378;2024-02-23T05:47:40;6.60;;;4.70;;
63112;SDS011;49206;48.020;21.378;2024-02-23T05:48:49;7.32;;;4.45;;
63112;SDS011;49206;48.020;21.378;2024-02-23T05:49:52;6.80;;;4.10;;
63112;SDS011;49206;48.020;21.378;2024-02-23T05:50:55;4.60;;;3.88;;
63112;SDS011;49206;48.020;21.378;2024-02-23T05:51:58;5.47;;;4.10;;
63112;SDS011;49206;48.020;21.378;2024-02-23T05:53:00;4.90;;;4.40;;
63112;SDS011;49206;48.020;21.378;2024-02-23T05:54:03;4.40;;;3.72;;
63112;SDS011;49206;48.020;21.378;2024-02-23T05:55:06;4.65;;;3.85;;
63112;SDS011;49206;48.020;21.378;2024-02-23T05:56:10;5.07;;;3.78;;
63112;SDS011;49206;48.020;21.378;2024-02-23T05:57:13;5.80;;;4.40;;
63112;SDS011;49206;48.020;21.378;2024-02-23T05:58:16;6.63;;;4.20;;
63112;SDS011;49206;48.020;21.378;2024-02-23T05:59:19;6.03;;;3.72;;
63112;SDS011;49206;48.020;21.378;2024-02-23T06:00:22;6.75;;;4.35;;
63112;SDS011;49206;48.020;21.378;2024-02-23T06:01:25;4.70;;;3.83;;
63112;SDS011;49206;48.020;21.378;2024-02-23T06:02:28;4.45;;;4.05;;
63112;SDS011;49206;48.020;21.378;2024-02-23T06:03:31;4.97;;;4.05;;
63112;SDS011;49206;48.020;21.378;2024-02-23T06:04:34;5.97;;;4.25;;
63112;SDS011;49206;48.020;21.378;2024-02-23T06:05:37;6.15;;;4.65;;
63112;SDS011;49206;48.020;21.378;2024-02-23T06:06:42;6.15;;;4.40;;
63112;SDS011;49206;48.020;21.378;2024-02-23T06:07:46;5.10;;;3.63;;
63112;SDS011;49206;48.020;21.378;2024-02-23T06:08:48;4.50;;;3.67;;
63112;SDS011;49206;48.020;21.378;2024-02-23T06:09:52;5.57;;;4.00;;
63112;SDS011;49206;48.020;21.378;2024-02-23T06:10:55;4.45;;;3.97;;
63112;SDS011;49206;48.020;21.378;2024-02-23T06:11:57;7.00;;;4.40;;
63112;SDS011;49206;48.020;21.378;2024-02-23T06:13:00;7.28;;;4.30;;
63112;SDS011;49206;48.020;21.378;2024-02-23T06:14:05;7.65;;;4.20;;
63112;SDS011;49206;48.020;21.378;2024-02-23T06:15:08;7.53;;;4.75;;
63112;SDS011;49206;48.020;21.378;2024-02-23T06:16:11;6.78;;;4.97;;
63112;SDS011;49206;48.020;21.378;2024-02-23T06:17:14;7.30;;;5.10;;
63112;SDS011;49206;48.020;21.378;2024-02-23T06:18:16;7.43;;;5.18;;